Time;durP1;ratioP1;P1;durP2;ratioP2;P2;SDS_P1;SDS_P2;PMS_P1;PMS_P2;Temp;Humidity;BMP_temperature;BMP_pressure;BME280_temperature;BME280_humidity;BME280_pressure;Samples;Min_cycle;Max_cycle;Signal;HPM_P1;HPM_P2
2023/02/04 00:00:59;;;;;;;9.05;3.45;;;;;;;;;;5053226;28;20037;-68
2023/02/04 00:03:25;;;;;;;6.82;2.95;;;;;;;;;;5053437;28;20025;-67
2023/02/04 00:05:51;;;;;;;7.60;2.85;;;;;;;;;;5052858;28;20227;-68
2023/02/04 00:08:17;;;;;;;7.03;2.80;;;;;;;;;;5053387;28;20540;-70
2023/02/04 00:10:43;;;;;;;5.55;2.78;;;;;;;;;;5052927;28;20033;-68
2023/02/04 00:13:09;;;;;;;6.15;2.80;;;;;;;;;;5052785;28;20033;-67
2023/02/04 00:15:35;;;;;;;7.70;3.10;;;;;;;;;;5053383;28;20100;-67
2023/02/04 00:18:02;;;;;;;7.20;2.30;;;;;;;;;;5053044;28;20036;-69
2023/02/04 00:20:28;;;;;;;8.07;2.55;;;;;;;;;;5053023;28;20037;-70
2023/02/04 00:22:54;;;;;;;5.47;2.75;;;;;;;;;;5053117;28;20025;-67
2023/02/04 00:25:19;;;;;;;7.03;2.35;;;;;;;;;;5053008;28;20048;-68
2023/02/04 00:27:45;;;;;;;6.20;2.92;;;;;;;;;;5052736;28;20037;-66
2023/02/04 00:30:12;;;;;;;7.75;3.20;;;;;;;;;;5052909;28;20021;-68
2023/02/04 00:32:38;;;;;;;10.50;3.35;;;;;;;;;;5052816;28;20029;-68
2023/02/04 00:35:04;;;;;;;5.18;2.30;;;;;;;;;;5052760;28;20588;-69
2023/02/04 00:37:30;;;;;;;5.55;2.75;;;;;;;;;;5052749;28;20041;-69
2023/02/04 00:39:56;;;;;;;6.78;3.30;;;;;;;;;;5052804;28;20104;-68
2023/02/04 00:42:23;;;;;;;6.05;2.25;;;;;;;;;;5052130;28;20103;-67
2023/02/04 00:44:48;;;;;;;6.18;2.33;;;;;;;;;;5052440;28;20554;-71
2023/02/04 00:47:14;;;;;;;6.72;2.65;;;;;;;;;;5053018;28;20031;-70
2023/02/04 00:49:40;;;;;;;7.68;2.92;;;;;;;;;;5052314;28;20032;-66
2023/02/04 00:52:06;;;;;;;7.05;2.42;;;;;;;;;;5052609;28;20074;-67
2023/02/04 00:54:32;;;;;;;5.07;2.20;;;;;;;;;;5052311;28;20037;-67
2023/02/04 00:56:58;;;;;;;7.03;2.72;;;;;;;;;;5052771;28;20039;-67
2023/02/04 00:59:25;;;;;;;5.53;2.35;;;;;;;;;;5052157;28;20052;-67
2023/02/04 01:01:50;;;;;;;6.38;2.90;;;;;;;;;;5033821;28;20468;-71
2023/02/04 01:04:17;;;;;;;5.38;2.55;;;;;;;;;;5052374;28;20021;-67
2023/02/04 01:06:43;;;;;;;4.93;2.58;;;;;;;;;;5051960;28;20495;-67
2023/02/04 01:09:09;;;;;;;7.75;2.30;;;;;;;;;;5052384;28;20104;-67
2023/02/04 01:11:35;;;;;;;5.05;2.40;;;;;;;;;;5051405;28;20036;-68
2023/02/04 01:14:01;;;;;;;6.10;2.53;;;;;;;;;;5051942;28;20075;-67
2023/02/04 01:16:27;;;;;;;4.90;2.50;;;;;;;;;;5052511;28;20021;-67
2023/02/04 01:18:54;;;;;;;4.90;2.33;;;;;;;;;;5051822;28;20025;-70
2023/02/04 01:21:21;;;;;;;3.83;2.08;;;;;;;;;;5052132;28;20043;-70
2023/02/04 01:23:48;;;;;;;7.50;2.63;;;;;;;;;;5051850;28;20032;-70
2023/02/04 01:26:14;;;;;;;5.47;2.70;;;;;;;;;;5051831;28;20040;-67
2023/02/04 01:28:40;;;;;;;5.57;2.28;;;;;;;;;;5051574;28;20515;-67
2023/02/04 01:31:06;;;;;;;5.45;2.60;;;;;;;;;;5050849;28;20054;-66
2023/02/04 01:33:32;;;;;;;5.75;2.17;;;;;;;;;;5051073;28;20082;-67
2023/02/04 01:35:58;;;;;;;4.47;2.15;;;;;;;;;;5052144;28;20025;-67
2023/02/04 01:38:24;;;;;;;4.22;2.10;;;;;;;;;;5052291;28;20025;-68
2023/02/04 01:40:51;;;;;;;4.45;2.03;;;;;;;;;;5051237;28;20037;-66
2023/02/04 01:43:17;;;;;;;5.32;2.53;;;;;;;;;;5051298;28;20067;-67
2023/02/04 01:45:44;;;;;;;7.13;2.78;;;;;;;;;;5051078;28;20162;-66
2023/02/04 01:48:11;;;;;;;6.07;2.30;;;;;;;;;;5051316;28;20031;-67
2023/02/04 01:50:37;;;;;;;5.15;2.53;;;;;;;;;;5051442;28;20107;-66
2023/02/04 01:53:03;;;;;;;4.50;2.63;;;;;;;;;;5033973;28;20060;-66
2023/02/04 01:55:31;;;;;;;6.43;2.60;;;;;;;;;;5051228;28;20481;-68
2023/02/04 01:57:57;;;;;;;4.88;2.08;;;;;;;;;;5051837;28;20071;-69
2023/02/04 02:00:28;;;;;;;4.90;2.10;;;;;;;;;;5050811;28;20040;-69
2023/02/04 02:02:55;;;;;;;5.78;2.17;;;;;;;;;;5051388;28;20082;-65
2023/02/04 02:05:22;;;;;;;4.85;2.50;;;;;;;;;;5051161;28;20064;-67
2023/02/04 02:07:49;;;;;;;5.15;2.65;;;;;;;;;;5050889;28;20920;-70
2023/02/04 02:10:15;;;;;;;6.53;3.00;;;;;;;;;;5050881;28;20025;-67
2023/02/04 02:12:42;;;;;;;3.70;2.17;;;;;;;;;;5050842;28;20037;-67
2023/02/04 02:15:08;;;;;;;5.75;2.55;;;;;;;;;;5050986;28;20101;-67
2023/02/04 02:17:35;;;;;;;4.97;2.58;;;;;;;;;;5050593;28;20060;-70
2023/02/04 02:20:01;;;;;;;3.72;2.20;;;;;;;;;;5050949;28;20020;-67
2023/02/04 02:22:36;;;;;;;4.65;2.38;;;;;;;;;;5051328;28;20037;-66
2023/02/04 02:25:07;;;;;;;3.75;1.90;;;;;;;;;;5050699;28;20163;-67
2023/02/04 02:27:33;;;;;;;5.15;2.25;;;;;;;;;;5051009;28;20029;-67
2023/02/04 02:29:59;;;;;;;3.83;2.20;;;;;;;;;;5050931;28;20492;-69
2023/02/04 02:32:25;;;;;;;5.30;2.35;;;;;;;;;;5051186;28;20111;-70
2023/02/04 02:34:51;;;;;;;4.90;2.20;;;;;;;;;;5050275;28;20524;-67
2023/02/04 02:37:17;;;;;;;2.72;1.70;;;;;;;;;;5050566;28;20033;-66
2023/02/04 02:39:44;;;;;;;5.05;2.22;;;;;;;;;;5050215;28;20114;-66
2023/02/04 02:42:13;;;;;;;3.78;1.90;;;;;;;;;;5049373;28;20455;-66
2023/02/04 02:44:39;;;;;;;5.47;2.30;;;;;;;;;;5050478;28;20087;-67
2023/02/04 02:47:06;;;;;;;3.95;1.85;;;;;;;;;;5050482;28;20037;-67
2023/02/04 02:49:33;;;;;;;3.42;2.20;;;;;;;;;;5049957;28;20025;-66
2023/02/04 02:51:59;;;;;;;3.92;1.90;;;;;;;;;;5050699;28;20022;-67
2023/02/04 02:54:30;;;;;;;4.45;2.17;;;;;;;;;;5050756;28;20396;-66
2023/02/04 02:56:56;;;;;;;4.03;2.20;;;;;;;;;;5032827;28;20047;-66
2023/02/04 02:59:22;;;;;;;4.47;2.13;;;;;;;;;;5050522;28;20108;-67
2023/02/04 03:01:51;;;;;;;4.82;2.25;;;;;;;;;;5049965;28;20037;-68
2023/02/04 03:04:18;;;;;;;5.18;2.20;;;;;;;;;;5050552;28;20033;-68
2023/02/04 03:06:44;;;;;;;3.67;2.00;;;;;;;;;;5049948;28;20123;-67
2023/02/04 03:09:11;;;;;;;4.43;2.85;;;;;;;;;;5049978;28;20029;-68
2023/02/04 03:11:37;;;;;;;4.07;2.42;;;;;;;;;;5050175;28;20025;-67
2023/02/04 03:14:03;;;;;;;4.75;2.47;;;;;;;;;;5050505;28;20055;-67
2023/02/04 03:16:31;;;;;;;3.85;1.83;;;;;;;;;;5050135;28;20088;-67
2023/02/04 03:18:58;;;;;;;4.85;2.13;;;;;;;;;;5050126;28;20029;-69
2023/02/04 03:21:24;;;;;;;4.88;2.10;;;;;;;;;;5050156;28;20412;-67
2023/02/04 03:23:50;;;;;;;4.53;2.40;;;;;;;;;;5032178;28;20025;-68
2023/02/04 03:26:16;;;;;;;3.47;1.73;;;;;;;;;;5050694;28;20021;-71
2023/02/04 03:28:42;;;;;;;4.97;2.15;;;;;;;;;;5050339;28;20124;-68
2023/02/04 03:31:08;;;;;;;4.47;2.03;;;;;;;;;;5049688;28;20060;-68
2023/02/04 03:33:34;;;;;;;3.33;1.98;;;;;;;;;;5049955;28;20526;-68
2023/02/04 03:36:01;;;;;;;3.92;1.67;;;;;;;;;;5050070;28;20060;-68
2023/02/04 03:38:27;;;;;;;3.97;1.85;;;;;;;;;;5050454;28;20100;-67
2023/02/04 03:40:53;;;;;;;4.07;1.65;;;;;;;;;;5049698;28;20036;-67
2023/02/04 03:43:19;;;;;;;2.42;1.55;;;;;;;;;;5049850;28;20025;-68
2023/02/04 03:45:45;;;;;;;4.18;1.80;;;;;;;;;;5049747;28;20436;-67
2023/02/04 03:48:11;;;;;;;7.95;2.00;;;;;;;;;;5049755;28;20025;-71
2023/02/04 03:50:37;;;;;;;3.28;1.77;;;;;;;;;;5049492;28;20068;-67
2023/02/04 03:53:03;;;;;;;2.60;1.30;;;;;;;;;;5049451;28;20049;-67
2023/02/04 03:55:31;;;;;;;3.63;1.60;;;;;;;;;;5032312;28;20033;-67
2023/02/04 03:57:57;;;;;;;4.43;1.50;;;;;;;;;;5034449;28;20105;-67
2023/02/04 04:00:23;;;;;;;3.85;1.90;;;;;;;;;;5046647;28;20108;-67
2023/02/04 04:02:49;;;;;;;3.80;1.65;;;;;;;;;;5053018;28;20063;-67
2023/02/04 04:05:15;;;;;;;4.35;1.95;;;;;;;;;;5053334;28;20036;-67
2023/02/04 04:07:41;;;;;;;3.47;1.50;;;;;;;;;;5052735;28;20052;-70
2023/02/04 04:10:07;;;;;;;4.28;1.42;;;;;;;;;;5052996;28;20028;-69
2023/02/04 04:12:33;;;;;;;4.85;2.20;;;;;;;;;;5052695;28;20063;-67
2023/02/04 04:15:00;;;;;;;4.00;1.70;;;;;;;;;;5053342;28;20064;-69
2023/02/04 04:17:26;;;;;;;3.03;1.40;;;;;;;;;;5053561;28;20087;-66
2023/02/04 04:19:52;;;;;;;3.88;1.65;;;;;;;;;;5052851;28;20033;-70
2023/02/04 04:22:18;;;;;;;3.08;1.98;;;;;;;;;;5052977;28;20029;-67
2023/02/04 04:24:44;;;;;;;3.13;1.50;;;;;;;;;;5052619;28;20054;-67
2023/02/04 04:27:10;;;;;;;3.17;1.55;;;;;;;;;;5053002;28;20036;-67
2023/02/04 04:29:36;;;;;;;4.40;1.95;;;;;;;;;;5053221;28;20036;-67
2023/02/04 04:32:04;;;;;;;3.85;1.65;;;;;;;;;;5052691;28;20028;-67
2023/02/04 04:34:30;;;;;;;3.60;1.55;;;;;;;;;;5052669;28;20036;-68
2023/02/04 04:36:56;;;;;;;3.80;1.50;;;;;;;;;;5052858;28;20389;-66
2023/02/04 04:39:22;;;;;;;3.75;1.40;;;;;;;;;;5053010;28;20060;-67
2023/02/04 04:41:48;;;;;;;2.28;1.33;;;;;;;;;;5052803;28;20033;-67
2023/02/04 04:44:14;;;;;;;1.95;1.15;;;;;;;;;;5052730;28;20025;-67
2023/02/04 04:46:39;;;;;;;2.95;1.27;;;;;;;;;;5052521;28;20108;-67
2023/02/04 04:49:06;;;;;;;2.90;1.50;;;;;;;;;;5052242;28;20025;-71
2023/02/04 04:51:32;;;;;;;5.15;1.63;;;;;;;;;;5052192;28;20126;-67
2023/02/04 04:53:58;;;;;;;1.83;1.20;;;;;;;;;;5052877;28;20032;-71
2023/02/04 04:56:24;;;;;;;3.15;1.40;;;;;;;;;;5052861;28;20029;-69
2023/02/04 04:58:51;;;;;;;2.60;1.40;;;;;;;;;;5052597;28;20025;-66
2023/02/04 05:01:17;;;;;;;2.38;1.27;;;;;;;;;;5052022;28;20047;-68
2023/02/04 05:03:43;;;;;;;3.35;1.45;;;;;;;;;;5052345;28;20033;-67
2023/02/04 05:06:09;;;;;;;3.17;1.35;;;;;;;;;;5050487;28;20485;-66
2023/02/04 05:08:36;;;;;;;2.92;1.45;;;;;;;;;;5051938;28;20113;-65
2023/02/04 05:11:02;;;;;;;3.08;1.30;;;;;;;;;;5052501;28;20025;-66
2023/02/04 05:13:28;;;;;;;2.50;1.50;;;;;;;;;;5052551;28;20024;-69
2023/02/04 05:15:54;;;;;;;4.03;1.38;;;;;;;;;;5052075;28;20087;-65
2023/02/04 05:18:20;;;;;;;2.25;1.20;;;;;;;;;;5052151;28;20494;-67
2023/02/04 05:20:46;;;;;;;4.53;1.60;;;;;;;;;;5051739;28;20041;-66
2023/02/04 05:23:12;;;;;;;3.50;1.25;;;;;;;;;;5034091;28;20074;-66
2023/02/04 05:25:38;;;;;;;4.80;1.50;;;;;;;;;;5051330;28;20393;-65
2023/02/04 05:28:04;;;;;;;2.58;1.73;;;;;;;;;;5052057;28;20032;-67
2023/02/04 05:30:30;;;;;;;2.90;1.40;;;;;;;;;;5051308;28;20028;-65
2023/02/04 05:32:57;;;;;;;5.32;1.40;;;;;;;;;;5051779;28;20025;-70
2023/02/04 05:35:22;;;;;;;7.30;1.17;;;;;;;;;;5051895;28;20040;-72
2023/02/04 05:37:48;;;;;;;3.22;1.20;;;;;;;;;;5051458;28;20025;-67
2023/02/04 05:40:14;;;;;;;3.03;1.30;;;;;;;;;;5051247;28;20405;-67
2023/02/04 05:42:40;;;;;;;3.20;1.25;;;;;;;;;;5051569;28;20087;-71
2023/02/04 05:45:07;;;;;;;4.30;1.38;;;;;;;;;;5051737;28;20025;-67
2023/02/04 05:47:33;;;;;;;2.22;1.10;;;;;;;;;;5050421;28;20408;-66
2023/02/04 05:49:59;;;;;;;2.75;1.10;;;;;;;;;;5051585;28;20059;-66
2023/02/04 05:52:25;;;;;;;3.03;1.25;;;;;;;;;;5051663;28;20112;-65
2023/02/04 05:54:51;;;;;;;3.58;1.55;;;;;;;;;;5051085;28;20029;-67
2023/02/04 05:57:17;;;;;;;3.90;1.20;;;;;;;;;;5050919;28;20067;-70
2023/02/04 05:59:43;;;;;;;3.03;1.40;;;;;;;;;;5050980;28;20052;-70
2023/02/04 06:02:09;;;;;;;3.05;1.30;;;;;;;;;;5050611;28;20037;-66
2023/02/04 06:04:35;;;;;;;3.22;1.08;;;;;;;;;;5051067;28;20028;-67
2023/02/04 06:07:02;;;;;;;2.35;1.10;;;;;;;;;;5050890;28;20033;-66
2023/02/04 06:09:28;;;;;;;3.28;0.95;;;;;;;;;;5050949;28;20032;-66
2023/02/04 06:11:54;;;;;;;3.17;1.15;;;;;;;;;;5050893;28;20071;-65
2023/02/04 06:14:20;;;;;;;2.90;1.10;;;;;;;;;;5050995;28;20094;-66
2023/02/04 06:16:46;;;;;;;2.88;1.13;;;;;;;;;;5050866;28;20025;-71
2023/02/04 06:19:12;;;;;;;2.63;1.15;;;;;;;;;;5050727;28;20047;-67
2023/02/04 06:21:38;;;;;;;2.55;1.20;;;;;;;;;;5050744;28;20055;-66
2023/02/04 06:24:05;;;;;;;2.20;0.98;;;;;;;;;;5050975;28;20434;-66
2023/02/04 06:26:31;;;;;;;3.17;1.45;;;;;;;;;;5035922;28;20033;-66
2023/02/04 06:28:57;;;;;;;1.98;1.05;;;;;;;;;;5051096;28;20448;-69
2023/02/04 06:31:22;;;;;;;2.70;1.13;;;;;;;;;;5050543;28;20063;-68
2023/02/04 06:33:48;;;;;;;3.28;1.05;;;;;;;;;;5050326;28;20859;-69
2023/02/04 06:36:14;;;;;;;3.05;1.40;;;;;;;;;;5050694;28;20036;-67
2023/02/04 06:38:40;;;;;;;1.80;1.17;;;;;;;;;;5050694;28;20029;-67
2023/02/04 06:41:06;;;;;;;3.50;1.02;;;;;;;;;;5050383;28;20124;-66
2023/02/04 06:43:32;;;;;;;2.78;1.20;;;;;;;;;;5050389;28;20067;-68
2023/02/04 06:45:58;;;;;;;2.75;1.08;;;;;;;;;;5050826;28;20037;-71
2023/02/04 06:48:24;;;;;;;2.45;1.23;;;;;;;;;;5051127;28;20040;-69
2023/02/04 06:50:50;;;;;;;1.77;1.02;;;;;;;;;;5050636;28;20435;-69
2023/02/04 06:53:16;;;;;;;3.33;1.33;;;;;;;;;;5050641;28;20108;-70
2023/02/04 06:55:42;;;;;;;2.45;1.20;;;;;;;;;;5050239;28;20032;-70
2023/02/04 06:58:08;;;;;;;1.75;1.10;;;;;;;;;;5050585;28;20029;-71
2023/02/04 07:00:34;;;;;;;2.75;1.30;;;;;;;;;;5049344;28;20060;-66
2023/02/04 07:03:00;;;;;;;3.40;1.40;;;;;;;;;;5050589;28;20492;-71
2023/02/04 07:05:26;;;;;;;2.38;1.33;;;;;;;;;;5050582;28;20052;-69
2023/02/04 07:07:52;;;;;;;4.10;1.20;;;;;;;;;;5049836;28;20401;-68
2023/02/04 07:10:19;;;;;;;3.25;1.30;;;;;;;;;;5050569;28;20025;-68
2023/02/04 07:12:46;;;;;;;2.78;1.17;;;;;;;;;;5050697;28;20027;-68
2023/02/04 07:15:12;;;;;;;2.58;1.00;;;;;;;;;;5048684;28;20044;-69
2023/02/04 07:17:38;;;;;;;2.33;1.10;;;;;;;;;;5049032;28;20584;-70
2023/02/04 07:20:04;;;;;;;2.63;1.15;;;;;;;;;;5050782;28;20108;-69
2023/02/04 07:22:30;;;;;;;3.95;1.48;;;;;;;;;;5050465;28;20072;-69
2023/02/04 07:24:56;;;;;;;2.13;1.10;;;;;;;;;;5050187;28;20060;-69
2023/02/04 07:27:22;;;;;;;3.40;1.35;;;;;;;;;;5030831;28;20036;-69
2023/02/04 07:29:48;;;;;;;3.08;1.25;;;;;;;;;;5050481;28;20449;-69
2023/02/04 07:32:14;;;;;;;2.67;1.10;;;;;;;;;;5053735;28;20029;-68
2023/02/04 07:34:40;;;;;;;3.10;1.38;;;;;;;;;;5054396;28;20080;-65
2023/02/04 07:37:06;;;;;;;2.45;1.20;;;;;;;;;;5054283;28;20036;-60
2023/02/04 07:39:31;;;;;;;2.33;1.05;;;;;;;;;;5053993;28;20079;-59
2023/02/04 07:41:57;;;;;;;2.65;1.08;;;;;;;;;;5054029;28;20037;-60
2023/02/04 07:44:23;;;;;;;3.33;1.73;;;;;;;;;;5053421;28;20041;-58
2023/02/04 07:46:49;;;;;;;3.70;0.95;;;;;;;;;;5053665;28;20025;-58
2023/02/04 07:49:15;;;;;;;2.50;1.50;;;;;;;;;;5054030;28;20398;-58
2023/02/04 07:51:41;;;;;;;4.38;1.50;;;;;;;;;;5053984;28;20096;-59
2023/02/04 07:54:07;;;;;;;5.97;1.23;;;;;;;;;;5053026;28;20035;-59
2023/02/04 07:56:33;;;;;;;3.63;1.20;;;;;;;;;;5053698;28;20028;-59
2023/02/04 07:58:59;;;;;;;2.55;1.30;;;;;;;;;;5053565;28;20489;-58
2023/02/04 08:01:25;;;;;;;6.22;1.77;;;;;;;;;;5037887;28;20084;-59
2023/02/04 08:03:51;;;;;;;4.30;1.55;;;;;;;;;;5053206;28;20035;-59
2023/02/04 08:06:18;;;;;;;6.50;1.77;;;;;;;;;;5053072;28;20035;-57
2023/02/04 08:08:44;;;;;;;6.10;1.70;;;;;;;;;;5052879;28;20401;-59
2023/02/04 08:11:10;;;;;;;4.57;1.67;;;;;;;;;;5053228;28;20108;-57
2023/02/04 08:13:36;;;;;;;5.55;1.55;;;;;;;;;;5053157;28;20032;-59
2023/02/04 08:16:02;;;;;;;3.53;1.58;;;;;;;;;;5053477;28;20025;-60
2023/02/04 08:18:29;;;;;;;8.52;2.55;;;;;;;;;;5053522;28;20036;-59
2023/02/04 08:20:55;;;;;;;9.00;2.05;;;;;;;;;;5053319;28;20028;-59
2023/02/04 08:23:21;;;;;;;5.28;2.47;;;;;;;;;;5053627;28;20112;-59
2023/02/04 08:25:47;;;;;;;4.45;2.33;;;;;;;;;;5052163;28;20029;-59
2023/02/04 08:28:13;;;;;;;4.85;2.47;;;;;;;;;;5052417;28;20033;-56
2023/02/04 08:30:39;;;;;;;9.13;3.20;;;;;;;;;;5052301;28;20397;-57
2023/02/04 08:33:05;;;;;;;9.18;3.40;;;;;;;;;;5051901;28;20029;-57
2023/02/04 08:35:31;;;;;;;7.10;3.25;;;;;;;;;;5052460;28;20036;-59
2023/02/04 08:37:57;;;;;;;6.03;3.45;;;;;;;;;;5052894;28;20025;-59
2023/02/04 08:40:23;;;;;;;7.80;3.67;;;;;;;;;;5052343;28;20100;-60
2023/02/04 08:42:49;;;;;;;10.13;4.38;;;;;;;;;;5052986;28;20032;-60
2023/02/04 08:45:15;;;;;;;7.68;3.28;;;;;;;;;;5053183;28;20426;-59
2023/02/04 08:47:41;;;;;;;8.77;3.42;;;;;;;;;;5052962;28;20029;-59
2023/02/04 08:50:09;;;;;;;10.00;3.67;;;;;;;;;;5052603;28;20499;-59
2023/02/04 08:52:35;;;;;;;10.60;3.53;;;;;;;;;;5052727;28;20035;-59
2023/02/04 08:55:01;;;;;;;7.28;3.80;;;;;;;;;;5052969;28;20021;-60
2023/02/04 08:57:27;;;;;;;9.32;3.65;;;;;;;;;;5053316;28;20384;-59
2023/02/04 08:59:53;;;;;;;9.82;3.97;;;;;;;;;;5052760;28;20021;-57
2023/02/04 09:02:19;;;;;;;8.10;3.38;;;;;;;;;;5052838;28;20040;-57
2023/02/04 09:04:45;;;;;;;9.70;3.67;;;;;;;;;;5052665;28;20043;-58
2023/02/04 09:07:11;;;;;;;8.45;3.50;;;;;;;;;;5052666;28;20048;-60
2023/02/04 09:09:37;;;;;;;8.23;3.42;;;;;;;;;;5052379;28;20063;-60
2023/02/04 09:12:03;;;;;;;6.57;2.70;;;;;;;;;;5052221;28;20032;-60
2023/02/04 09:14:29;;;;;;;10.57;3.83;;;;;;;;;;5052491;28;20024;-58
2023/02/04 09:16:55;;;;;;;7.93;2.90;;;;;;;;;;5052309;28;20033;-60
2023/02/04 09:19:24;;;;;;;7.70;2.80;;;;;;;;;;5052050;28;20035;-59
2023/02/04 09:21:53;;;;;;;9.65;3.33;;;;;;;;;;5051295;28;20115;-56
2023/02/04 09:24:22;;;;;;;9.00;2.80;;;;;;;;;;5052411;28;20100;-57
2023/02/04 09:26:48;;;;;;;7.65;3.33;;;;;;;;;;5052299;28;20029;-59
2023/02/04 09:29:14;;;;;;;6.65;3.03;;;;;;;;;;5051569;28;20029;-57
2023/02/04 09:31:40;;;;;;;6.85;2.97;;;;;;;;;;5052035;28;20519;-58
2023/02/04 09:34:07;;;;;;;9.52;3.45;;;;;;;;;;5051602;28;20040;-57
2023/02/04 09:36:36;;;;;;;8.73;3.10;;;;;;;;;;5049220;28;20035;-59
2023/02/04 09:39:03;;;;;;;6.95;2.88;;;;;;;;;;5043339;28;20405;-59
2023/02/04 09:41:29;;;;;;;7.55;2.45;;;;;;;;;;5051299;28;20095;-57
2023/02/04 09:43:55;;;;;;;6.32;2.63;;;;;;;;;;5052472;28;20044;-58
2023/02/04 09:46:23;;;;;;;5.28;2.40;;;;;;;;;;5051652;28;20028;-59
2023/02/04 09:48:49;;;;;;;7.78;2.83;;;;;;;;;;5049725;28;20032;-56
2023/02/04 09:51:18;;;;;;;9.85;2.78;;;;;;;;;;5050226;28;20489;-60
2023/02/04 09:53:44;;;;;;;7.85;2.92;;;;;;;;;;5050076;28;20032;-58
2023/02/04 09:56:11;;;;;;;9.07;2.15;;;;;;;;;;5050824;28;20024;-60
2023/02/04 09:58:37;;;;;;;9.05;2.65;;;;;;;;;;5049670;28;20029;-60
2023/02/04 10:01:13;;;;;;;5.10;2.40;;;;;;;;;;5050130;28;20114;-57
2023/02/04 10:03:45;;;;;;;8.20;2.88;;;;;;;;;;5050540;28;20497;-59
2023/02/04 10:06:11;;;;;;;6.15;2.53;;;;;;;;;;5050699;28;20451;-60
2023/02/04 10:08:37;;;;;;;4.75;2.47;;;;;;;;;;5050576;28;20017;-59
2023/02/04 10:11:04;;;;;;;8.20;2.80;;;;;;;;;;5051418;28;20035;-60
2023/02/04 10:13:34;;;;;;;6.10;2.70;;;;;;;;;;5051381;28;20025;-59
2023/02/04 10:16:00;;;;;;;9.27;2.45;;;;;;;;;;5051499;28;20021;-59
2023/02/04 10:18:31;;;;;;;5.38;2.28;;;;;;;;;;5051579;28;20025;-60
2023/02/04 10:21:00;;;;;;;7.75;2.20;;;;;;;;;;5051561;28;20485;-60
2023/02/04 10:23:26;;;;;;;6.95;2.40;;;;;;;;;;5050466;28;20509;-60
2023/02/04 10:25:52;;;;;;;5.47;2.72;;;;;;;;;;5051064;28;20020;-60
2023/02/04 10:28:18;;;;;;;7.03;2.33;;;;;;;;;;5051212;28;20032;-60
2023/02/04 10:30:45;;;;;;;4.88;2.35;;;;;;;;;;5050925;28;20049;-59
2023/02/04 10:33:16;;;;;;;8.57;2.58;;;;;;;;;;5051328;28;20037;-60
2023/02/04 10:35:46;;;;;;;5.80;2.75;;;;;;;;;;5050023;28;20025;-56
2023/02/04 10:38:12;;;;;;;6.10;2.40;;;;;;;;;;5050667;28;20059;-59
2023/02/04 10:40:38;;;;;;;7.30;2.45;;;;;;;;;;5050751;28;20462;-59
2023/02/04 10:43:09;;;;;;;6.38;2.55;;;;;;;;;;5051129;28;20053;-57
2023/02/04 10:45:35;;;;;;;6.07;2.25;;;;;;;;;;5050672;28;20025;-55
2023/02/04 10:48:01;;;;;;;8.30;2.67;;;;;;;;;;5051027;28;20458;-58
2023/02/04 10:50:29;;;;;;;4.78;2.28;;;;;;;;;;5051316;28;20021;-60
2023/02/04 10:54:28;;;;;;;7.40;2.50;;;;;;;;;;5050915;28;20041;-59
2023/02/04 10:55:46;;;;;;;8.48;2.67;;;;;;;;;;5049861;28;20080;-60
2023/02/04 10:58:14;;;;;;;7.55;2.58;;;;;;;;;;5049313;28;20381;-60
2023/02/04 11:00:40;;;;;;;7.25;2.47;;;;;;;;;;5050272;28;20033;-59
2023/02/04 11:03:10;;;;;;;9.07;2.53;;;;;;;;;;5049085;28;20036;-59
2023/02/04 11:05:36;;;;;;;4.00;2.50;;;;;;;;;;5051668;28;20413;-60
2023/02/04 11:08:18;;;;;;;9.00;2.85;;;;;;;;;;5054860;28;20025;-59
2023/02/04 11:10:44;;;;;;;7.13;2.65;;;;;;;;;;5054197;28;20083;-60
2023/02/04 11:13:20;;;;;;;7.90;2.35;;;;;;;;;;5054889;28;20017;-59
2023/02/04 11:15:50;;;;;;;9.63;2.55;;;;;;;;;;5054092;28;20547;-59
2023/02/04 11:18:19;;;;;;;12.32;3.20;;;;;;;;;;5052826;28;20028;-59
2023/02/04 11:20:45;;;;;;;8.23;2.90;;;;;;;;;;5052974;28;20527;-58
2023/02/04 11:23:14;;;;;;;9.30;2.55;;;;;;;;;;5054137;28;20025;-58
2023/02/04 11:25:40;;;;;;;5.38;2.80;;;;;;;;;;5052746;28;20083;-59
2023/02/04 11:28:24;;;;;;;5.07;2.40;;;;;;;;;;5052220;28;20025;-58
2023/02/04 11:30:58;;;;;;;5.28;2.45;;;;;;;;;;5051798;28;20061;-59
2023/02/04 11:33:25;;;;;;;8.57;2.70;;;;;;;;;;5051833;28;20063;-59
2023/02/04 11:36:04;;;;;;;3.88;2.75;;;;;;;;;;5051364;28;20477;-59
2023/02/04 11:38:30;;;;;;;6.68;2.83;;;;;;;;;;5052445;28;20021;-58
2023/02/04 11:40:58;;;;;;;6.38;2.60;;;;;;;;;;5053863;28;20052;-59
2023/02/04 11:43:25;;;;;;;5.05;2.05;;;;;;;;;;5054394;28;20040;-59
2023/02/04 11:46:05;;;;;;;5.35;2.63;;;;;;;;;;5053923;28;20367;-57
2023/02/04 11:48:31;;;;;;;7.68;2.20;;;;;;;;;;5054134;28;20116;-58
2023/02/04 11:50:58;;;;;;;7.95;2.40;;;;;;;;;;5054375;28;20409;-59
2023/02/04 11:53:28;;;;;;;7.28;2.92;;;;;;;;;;5054603;28;20031;-58
2023/02/04 11:55:54;;;;;;;5.57;2.28;;;;;;;;;;5054168;28;20040;-60
2023/02/04 11:58:21;;;;;;;9.15;3.00;;;;;;;;;;5054066;28;20032;-60
2023/02/04 12:00:47;;;;;;;9.45;2.58;;;;;;;;;;5053756;28;20029;-56
2023/02/04 12:03:21;;;;;;;5.22;2.08;;;;;;;;;;5054002;28;20037;-59
2023/02/04 12:05:48;;;;;;;4.82;2.47;;;;;;;;;;5053443;28;20029;-59
2023/02/04 12:08:23;;;;;;;7.63;2.95;;;;;;;;;;5053746;28;20048;-59
2023/02/04 12:11:09;;;;;;;5.55;2.50;;;;;;;;;;5053576;28;20112;-57
2023/02/04 12:13:35;;;;;;;;;;;;;;;;;;5053877;28;20029;-59
2023/02/04 12:16:06;;;;;;;7.38;2.78;;;;;;;;;;5053271;28;19912;-58
2023/02/04 12:18:33;;;;;;;4.32;2.17;;;;;;;;;;5053434;28;20033;-60
2023/02/04 12:20:59;;;;;;;6.53;2.45;;;;;;;;;;5053755;28;20496;-57
2023/02/04 12:23:26;;;;;;;6.00;1.80;;;;;;;;;;5053908;28;20024;-58
2023/02/04 12:25:53;;;;;;;4.32;2.83;;;;;;;;;;5053330;28;20025;-59
2023/02/04 12:28:19;;;;;;;5.43;2.40;;;;;;;;;;5053506;28;20060;-58
2023/02/04 12:30:45;;;;;;;7.75;2.58;;;;;;;;;;5053287;28;20095;-60
2023/02/04 12:33:11;;;;;;;4.68;2.25;;;;;;;;;;5053473;28;20152;-60
2023/02/04 12:35:37;;;;;;;5.90;2.50;;;;;;;;;;5053171;28;20078;-60
2023/02/04 12:38:03;;;;;;;5.97;2.33;;;;;;;;;;5053154;28;20107;-60
2023/02/04 12:40:29;;;;;;;6.90;2.45;;;;;;;;;;5052958;28;20021;-59
2023/02/04 12:42:55;;;;;;;4.90;1.95;;;;;;;;;;5053604;28;20028;-60
2023/02/04 12:45:21;;;;;;;4.70;2.60;;;;;;;;;;5053190;28;20374;-60
2023/02/04 12:47:47;;;;;;;4.38;2.30;;;;;;;;;;5052979;28;20025;-59
2023/02/04 12:50:14;;;;;;;5.28;2.22;;;;;;;;;;5053017;28;20032;-57
2023/02/04 12:52:40;;;;;;;4.90;2.40;;;;;;;;;;5052790;28;20059;-59
2023/02/04 12:55:08;;;;;;;4.75;2.20;;;;;;;;;;5052977;28;20060;-60
2023/02/04 12:57:34;;;;;;;3.70;2.25;;;;;;;;;;5052833;28;20052;-61
2023/02/04 13:00:00;;;;;;;4.60;2.40;;;;;;;;;;5052955;28;20018;-58
2023/02/04 13:02:29;;;;;;;3.88;2.17;;;;;;;;;;5053041;28;20041;-59
2023/02/04 13:04:55;;;;;;;5.22;2.20;;;;;;;;;;5053029;28;20477;-60
2023/02/04 13:07:21;;;;;;;5.15;2.88;;;;;;;;;;5052542;28;20519;-59
2023/02/04 13:09:47;;;;;;;4.57;2.22;;;;;;;;;;5052399;28;20024;-59
2023/02/04 13:12:14;;;;;;;5.57;2.28;;;;;;;;;;5052762;28;20036;-59
2023/02/04 13:14:40;;;;;;;4.05;2.20;;;;;;;;;;5052434;28;20078;-60
2023/02/04 13:17:06;;;;;;;4.03;2.30;;;;;;;;;;5052623;28;20021;-59
2023/02/04 13:19:32;;;;;;;4.80;2.38;;;;;;;;;;5052259;28;20463;-58
2023/02/04 13:21:59;;;;;;;7.38;2.88;;;;;;;;;;5052722;28;20037;-60
2023/02/04 13:24:25;;;;;;;4.82;2.00;;;;;;;;;;5052833;28;20480;-58
2023/02/04 13:26:51;;;;;;;5.70;2.17;;;;;;;;;;5051519;28;20029;-60
2023/02/04 13:29:17;;;;;;;6.45;2.45;;;;;;;;;;5034266;28;20021;-59
2023/02/04 13:31:43;;;;;;;3.90;2.33;;;;;;;;;;5052048;28;20489;-60
2023/02/04 13:34:09;;;;;;;4.25;2.20;;;;;;;;;;5052136;28;20027;-59
2023/02/04 13:36:35;;;;;;;5.32;2.30;;;;;;;;;;5052055;28;20033;-59
2023/02/04 13:39:01;;;;;;;5.55;2.40;;;;;;;;;;5052222;28;20021;-59
2023/02/04 13:41:27;;;;;;;4.47;2.17;;;;;;;;;;5052512;28;20037;-59
2023/02/04 13:43:53;;;;;;;4.25;2.30;;;;;;;;;;5051781;28;20029;-61
2023/02/04 13:46:20;;;;;;;6.00;2.30;;;;;;;;;;5051973;28;20029;-59
2023/02/04 13:48:46;;;;;;;5.90;2.00;;;;;;;;;;5051598;28;20064;-60
2023/02/04 13:51:12;;;;;;;4.53;2.50;;;;;;;;;;5052090;28;20025;-60
2023/02/04 13:53:39;;;;;;;5.05;2.30;;;;;;;;;;5051627;28;20096;-61
2023/02/04 13:56:05;;;;;;;4.50;2.38;;;;;;;;;;5051865;28;20033;-59
2023/02/04 13:58:31;;;;;;;5.05;2.58;;;;;;;;;;5051505;28;20405;-58
2023/02/04 14:00:57;;;;;;;3.40;1.85;;;;;;;;;;5051951;28;20397;-60
2023/02/04 14:03:26;;;;;;;6.97;2.67;;;;;;;;;;5051592;28;20017;-60
2023/02/04 14:05:52;;;;;;;4.57;2.42;;;;;;;;;;5051264;28;20118;-61
2023/02/04 14:08:19;;;;;;;4.10;2.40;;;;;;;;;;5051683;28;20419;-59
2023/02/04 14:10:45;;;;;;;6.00;2.38;;;;;;;;;;5051431;28;20021;-60
2023/02/04 14:13:11;;;;;;;2.97;1.88;;;;;;;;;;5051626;28;20029;-59
2023/02/04 14:15:39;;;;;;;4.50;2.17;;;;;;;;;;5051281;28;20017;-59
2023/02/04 14:18:05;;;;;;;5.97;2.47;;;;;;;;;;5051333;28;20029;-59
2023/02/04 14:20:31;;;;;;;3.70;2.33;;;;;;;;;;5050955;28;20055;-58
2023/02/04 14:22:57;;;;;;;4.85;2.22;;;;;;;;;;5051726;28;20031;-59
2023/02/04 14:25:23;;;;;;;6.43;2.70;;;;;;;;;;5051479;28;20392;-59
2023/02/04 14:27:49;;;;;;;4.55;2.30;;;;;;;;;;5051108;28;20028;-59
2023/02/04 14:30:17;;;;;;;3.92;2.03;;;;;;;;;;5051211;28;20043;-57
2023/02/04 14:32:43;;;;;;;6.22;2.47;;;;;;;;;;5051035;28;20028;-60
2023/02/04 14:35:09;;;;;;;5.32;2.10;;;;;;;;;;5051273;28;20071;-59
2023/02/04 14:37:35;;;;;;;4.30;2.25;;;;;;;;;;5050899;28;20401;-59
2023/02/04 14:40:01;;;;;;;5.95;2.72;;;;;;;;;;5050903;28;20025;-59